createdAt,value
2018-11-07T00:00:06.623Z,9.40
2018-11-07T00:01:06.610Z,9.00
2018-11-07T00:02:06.621Z,8.80
2018-11-07T00:03:06.586Z,9.40
2018-11-07T00:04:06.578Z,9.20
2018-11-07T00:05:06.567Z,9.50
2018-11-07T00:06:06.568Z,8.70
2018-11-07T00:07:06.540Z,8.80
2018-11-07T00:08:06.604Z,9.10
2018-11-07T00:09:06.524Z,9.20
2018-11-07T00:10:06.522Z,8.80
2018-11-07T00:11:06.517Z,8.20
2018-11-07T00:12:06.507Z,8.60
2018-11-07T00:13:06.474Z,8.70
2018-11-07T00:14:06.495Z,9.40
2018-11-07T00:15:06.456Z,9.10
2018-11-07T00:16:06.460Z,8.40
2018-11-07T00:17:06.452Z,9.00
2018-11-07T00:18:06.430Z,8.90
2018-11-07T00:19:06.409Z,8.80
2018-11-07T00:20:06.394Z,8.70
2018-11-07T00:21:06.408Z,7.90
2018-11-07T00:22:06.378Z,8.90
2018-11-07T00:23:06.370Z,8.60
2018-11-07T00:24:06.357Z,8.20
2018-11-07T00:25:06.377Z,8.80
2018-11-07T00:26:06.362Z,8.90
2018-11-07T00:27:06.323Z,8.70
2018-11-07T00:28:06.356Z,8.30
2018-11-07T00:29:06.305Z,9.00
2018-11-07T00:30:06.348Z,8.30
2018-11-07T00:31:06.278Z,8.80
2018-11-07T00:32:06.268Z,8.70
2018-11-07T00:33:06.269Z,8.90
2018-11-07T00:34:06.244Z,8.30
2018-11-07T00:35:06.276Z,9.10
2018-11-07T00:36:06.226Z,8.30
2018-11-07T00:37:06.231Z,8.30
2018-11-07T00:38:06.211Z,8.30
2018-11-07T00:39:06.211Z,9.40
2018-11-07T00:40:06.175Z,9.00
2018-11-07T00:41:06.170Z,9.40
2018-11-07T00:42:06.211Z,8.70
2018-11-07T00:43:06.146Z,9.10
2018-11-07T00:44:06.137Z,8.80
2018-11-07T00:45:06.148Z,8.90
2018-11-07T00:46:06.130Z,9.30
2018-11-07T00:47:06.124Z,8.90
2018-11-07T00:48:06.086Z,8.50
2018-11-07T00:49:06.082Z,8.90
2018-11-07T00:50:06.069Z,8.40
2018-11-07T00:51:06.055Z,8.50
2018-11-07T00:52:06.062Z,8.60
2018-11-07T00:53:06.039Z,8.10
2018-11-07T00:54:06.025Z,8.50
2018-11-07T00:55:06.038Z,8.20
2018-11-07T00:56:06.005Z,8.30
2018-11-07T00:57:06.012Z,8.00
2018-11-07T00:58:06.040Z,8.00
2018-11-07T00:59:05.968Z,8.50
2018-11-07T01:00:05.954Z,8.40
2018-11-07T01:01:05.950Z,7.90
2018-11-07T01:02:05.937Z,7.60
2018-11-07T01:03:05.943Z,8.30
2018-11-07T01:04:05.920Z,8.00
2018-11-07T01:05:05.901Z,7.90
2018-11-07T01:06:05.892Z,7.90
2018-11-07T01:07:05.882Z,7.80
2018-11-07T01:08:05.891Z,8.20
2018-11-07T01:09:05.858Z,8.10
2018-11-07T01:10:05.849Z,8.00
2018-11-07T01:11:05.857Z,7.90
2018-11-07T01:12:05.822Z,8.40
2018-11-07T01:13:05.839Z,9.00
2018-11-07T01:14:05.817Z,8.20
2018-11-07T01:15:05.820Z,8.80
2018-11-07T01:16:05.804Z,8.50
2018-11-07T01:17:05.773Z,8.40
2018-11-07T01:18:05.802Z,8.20
2018-11-07T01:19:05.764Z,8.50
2018-11-07T01:20:05.737Z,8.70
2018-11-07T01:21:05.728Z,8.00
2018-11-07T01:22:05.719Z,8.70
2018-11-07T01:23:05.720Z,8.60
2018-11-07T01:24:05.697Z,9.20
2018-11-07T01:25:05.684Z,8.10
2018-11-07T01:26:05.677Z,8.60
2018-11-07T01:27:05.666Z,9.20
2018-11-07T01:28:05.732Z,9.20
2018-11-07T01:29:05.639Z,8.70
2018-11-07T01:30:05.630Z,9.20
2018-11-07T01:31:05.614Z,8.80
2018-11-07T01:32:05.623Z,8.70
2018-11-07T01:33:05.616Z,9.00
2018-11-07T01:34:05.591Z,9.50
2018-11-07T01:35:05.583Z,9.30
2018-11-07T01:36:05.565Z,8.90
2018-11-07T01:37:05.571Z,9.10
2018-11-07T01:38:05.538Z,8.90
2018-11-07T01:39:05.534Z,8.80
2018-11-07T01:40:05.524Z,8.70
2018-11-07T01:41:05.508Z,9.30
2018-11-07T01:42:05.613Z,9.80
2018-11-07T01:43:05.485Z,8.90
2018-11-07T01:44:05.486Z,8.90
2018-11-07T01:45:05.485Z,9.20
2018-11-07T01:46:05.459Z,8.90
2018-11-07T01:47:05.448Z,8.90
2018-11-07T01:48:05.435Z,9.00
2018-11-07T01:49:05.421Z,8.80
2018-11-07T01:50:05.428Z,9.10
2018-11-07T01:51:05.411Z,8.80
2018-11-07T01:52:05.393Z,9.20
2018-11-07T01:53:05.397Z,9.30
2018-11-07T01:54:05.394Z,9.20
2018-11-07T01:55:05.356Z,8.70
2018-11-07T01:56:05.346Z,8.90
2018-11-07T01:57:05.336Z,9.00
2018-11-07T01:58:05.352Z,9.40
2018-11-07T01:59:05.317Z,9.30
2018-11-07T02:00:05.343Z,9.30
2018-11-07T02:01:05.292Z,9.30
2018-11-07T02:02:05.341Z,9.10
2018-11-07T02:03:05.289Z,9.10
2018-11-07T02:04:05.255Z,9.20
2018-11-07T02:05:05.249Z,9.10
2018-11-07T02:06:05.244Z,8.90
2018-11-07T02:07:05.232Z,9.50
2018-11-07T02:08:05.235Z,9.20
2018-11-07T02:09:05.206Z,9.20
2018-11-07T02:10:05.193Z,9.10
2018-11-07T02:11:05.190Z,9.50
2018-11-07T02:12:05.189Z,9.20
2018-11-07T02:13:05.186Z,9.20
2018-11-07T02:14:05.147Z,9.00
2018-11-07T02:15:05.136Z,9.30
2018-11-07T02:16:05.126Z,9.50
2018-11-07T02:17:05.145Z,9.30
2018-11-07T02:18:05.109Z,9.60
2018-11-07T02:19:05.099Z,9.80
2018-11-07T02:20:05.092Z,9.20
2018-11-07T02:21:05.071Z,9.30
2018-11-07T02:22:05.062Z,9.00
2018-11-07T02:23:05.067Z,9.50
2018-11-07T02:24:05.077Z,9.50
2018-11-07T02:25:05.030Z,9.30
2018-11-07T02:26:05.015Z,8.70
2018-11-07T02:27:05.012Z,8.80
2018-11-07T02:28:04.998Z,8.90
2018-11-07T02:29:05.004Z,9.60
2018-11-07T02:30:04.973Z,9.10
2018-11-07T02:31:04.976Z,9.40
2018-11-07T02:32:04.979Z,9.20
2018-11-07T02:33:04.946Z,9.30
2018-11-07T02:34:04.952Z,9.30
2018-11-07T02:35:04.925Z,9.00
2018-11-07T02:36:04.918Z,8.90
2018-11-07T02:37:04.960Z,8.90
2018-11-07T02:38:04.885Z,8.60
2018-11-07T02:39:04.895Z,8.90
2018-11-07T02:40:04.865Z,9.40
2018-11-07T02:41:04.856Z,9.30
2018-11-07T02:42:04.847Z,9.60
2018-11-07T02:43:04.832Z,8.80
2018-11-07T02:44:04.850Z,9.00
2018-11-07T02:45:04.818Z,9.00
2018-11-07T02:46:04.804Z,8.90
2018-11-07T02:47:04.835Z,10.00
2018-11-07T02:48:04.780Z,10.10
2018-11-07T02:49:04.785Z,10.00
2018-11-07T02:50:04.753Z,9.00
2018-11-07T02:51:04.743Z,10.20
2018-11-07T02:52:04.752Z,10.10
2018-11-07T02:53:04.725Z,9.30
2018-11-07T02:54:04.717Z,10.70
2018-11-07T02:55:04.705Z,9.70
2018-11-07T02:56:04.693Z,10.10
2018-11-07T02:57:05.075Z,10.30
2018-11-07T02:58:04.667Z,10.10
2018-11-07T02:59:04.679Z,10.20
2018-11-07T03:00:04.657Z,10.70
2018-11-07T03:01:04.656Z,9.70
2018-11-07T03:02:04.641Z,9.70
2018-11-07T03:03:04.618Z,10.50
2018-11-07T03:04:04.606Z,9.60
2018-11-07T03:05:04.597Z,9.70
2018-11-07T03:06:04.590Z,10.00
2018-11-07T03:07:04.608Z,9.40
2018-11-07T03:08:04.574Z,9.60
2018-11-07T03:09:04.549Z,9.10
2018-11-07T03:10:04.631Z,9.00
2018-11-07T03:11:04.524Z,8.90
2018-11-07T03:12:04.533Z,9.40
2018-11-07T03:13:04.508Z,9.00
2018-11-07T03:14:04.498Z,8.90
2018-11-07T03:15:04.480Z,9.90
2018-11-07T03:16:04.476Z,8.90
2018-11-07T03:17:04.481Z,8.80
2018-11-07T03:18:04.470Z,9.50
2018-11-07T03:19:04.464Z,9.20
2018-11-07T03:20:04.431Z,8.90
2018-11-07T03:21:04.419Z,9.30
2018-11-07T03:22:04.423Z,8.70
2018-11-07T03:23:04.401Z,8.80
2018-11-07T03:24:04.384Z,8.80
2018-11-07T03:25:04.380Z,8.80
2018-11-07T03:26:04.368Z,7.90
2018-11-07T03:27:04.377Z,8.20
2018-11-07T03:28:04.343Z,8.00
2018-11-07T03:29:04.337Z,8.10
2018-11-07T03:30:04.321Z,8.20
2018-11-07T03:31:04.313Z,7.90
2018-11-07T03:32:04.317Z,7.50
2018-11-07T03:33:04.286Z,8.20
2018-11-07T03:34:04.289Z,8.60
2018-11-07T03:35:04.263Z,8.20
2018-11-07T03:36:04.253Z,7.40
2018-11-07T03:37:04.266Z,8.60
2018-11-07T03:38:04.252Z,7.30
2018-11-07T03:39:04.225Z,7.50
2018-11-07T03:40:04.212Z,7.90
2018-11-07T03:41:04.198Z,7.30
2018-11-07T03:42:04.202Z,7.60
2018-11-07T03:43:04.174Z,7.20
2018-11-07T03:44:04.167Z,7.60
2018-11-07T03:45:04.175Z,7.50
2018-11-07T03:46:04.166Z,7.70
2018-11-07T03:47:04.131Z,7.50
2018-11-07T03:48:04.122Z,7.30
2018-11-07T03:49:04.134Z,7.50
2018-11-07T03:50:04.107Z,7.40
2018-11-07T03:51:04.099Z,7.50
2018-11-07T03:52:04.085Z,8.30
2018-11-07T03:53:04.075Z,7.20
2018-11-07T03:54:04.072Z,7.70
2018-11-07T03:55:04.044Z,7.40
2018-11-07T03:56:04.035Z,7.20
2018-11-07T03:57:04.044Z,7.50
2018-11-07T03:58:04.018Z,7.80
2018-11-07T03:59:04.007Z,7.50
2018-11-07T04:00:05.690Z,7.60
2018-11-07T04:01:03.985Z,7.60
2018-11-07T04:02:03.968Z,7.40
2018-11-07T04:03:03.964Z,7.80
2018-11-07T04:04:03.954Z,7.70
2018-11-07T04:05:03.957Z,7.60
2018-11-07T04:06:03.968Z,8.10
2018-11-07T04:07:03.935Z,7.50
2018-11-07T04:08:03.906Z,7.60
2018-11-07T04:09:03.895Z,7.70
2018-11-07T04:10:03.909Z,7.40
2018-11-07T04:11:03.876Z,8.00
2018-11-07T04:12:03.863Z,7.40
2018-11-07T04:13:03.850Z,8.10
2018-11-07T04:14:03.839Z,7.90
2018-11-07T04:15:03.848Z,7.20
2018-11-07T04:16:03.817Z,7.50
2018-11-07T04:17:03.825Z,7.60
2018-11-07T04:18:03.803Z,7.70
2018-11-07T04:19:03.782Z,7.40
2018-11-07T04:20:03.790Z,7.50
2018-11-07T04:21:03.765Z,7.20
2018-11-07T04:22:03.792Z,7.80
2018-11-07T04:23:03.759Z,7.10
2018-11-07T04:24:03.732Z,7.00
2018-11-07T04:25:03.718Z,7.20
2018-11-07T04:26:03.722Z,7.50
2018-11-07T04:27:03.695Z,7.20
2018-11-07T04:28:03.684Z,7.30
2018-11-07T04:29:03.676Z,6.90
2018-11-07T04:30:03.690Z,6.70
2018-11-07T04:31:03.676Z,6.90
2018-11-07T04:32:03.649Z,7.00
2018-11-07T04:33:03.634Z,6.90
2018-11-07T04:34:03.619Z,6.40
2018-11-07T04:35:03.613Z,6.90
2018-11-07T04:36:03.616Z,6.50
2018-11-07T04:37:03.587Z,6.50
2018-11-07T04:38:03.575Z,6.90
2018-11-07T04:39:03.618Z,6.70
2018-11-07T04:40:03.570Z,6.60
2018-11-07T04:41:03.563Z,6.70
2018-11-07T04:42:03.543Z,6.40
2018-11-07T04:43:03.527Z,6.60
2018-11-07T04:44:03.522Z,6.70
2018-11-07T04:45:03.530Z,6.40
2018-11-07T04:46:03.485Z,6.40
2018-11-07T04:47:03.499Z,6.40
2018-11-07T04:48:03.474Z,6.40
2018-11-07T04:49:03.507Z,6.70
2018-11-07T04:50:03.448Z,6.50
2018-11-07T04:51:03.463Z,6.40
2018-11-07T04:52:03.434Z,6.50
2018-11-07T04:53:03.466Z,6.80
2018-11-07T04:54:03.411Z,6.20
2018-11-07T04:55:03.412Z,6.40
2018-11-07T04:56:03.380Z,6.30
2018-11-07T04:57:03.367Z,6.50
2018-11-07T04:58:03.375Z,6.10
2018-11-07T04:59:03.342Z,6.30
2018-11-07T05:00:03.350Z,6.20
2018-11-07T05:01:03.352Z,6.10
2018-11-07T05:02:03.335Z,6.20
2018-11-07T05:03:03.323Z,6.60
2018-11-07T05:04:03.295Z,6.30
2018-11-07T05:05:03.280Z,5.70
2018-11-07T05:06:03.270Z,6.20
2018-11-07T05:07:03.263Z,6.00
2018-11-07T05:08:03.273Z,5.80
2018-11-07T05:09:03.237Z,6.10
2018-11-07T05:10:03.223Z,5.80
2018-11-07T05:11:03.255Z,5.90
2018-11-07T05:12:03.203Z,6.50
2018-11-07T05:13:03.195Z,5.90
2018-11-07T05:14:03.187Z,5.90
2018-11-07T05:15:03.256Z,6.00
2018-11-07T05:16:03.162Z,5.50
2018-11-07T05:17:03.167Z,5.50
2018-11-07T05:18:03.137Z,5.40
2018-11-07T05:19:03.130Z,5.40
2018-11-07T05:20:03.117Z,5.20
2018-11-07T05:21:03.127Z,5.20
2018-11-07T05:22:03.099Z,5.70
2018-11-07T05:23:03.084Z,5.30
2018-11-07T05:24:03.076Z,5.40
2018-11-07T05:25:03.069Z,5.50
2018-11-07T05:26:03.106Z,5.10
2018-11-07T05:27:03.045Z,4.90
2018-11-07T05:28:03.031Z,5.40
2018-11-07T05:29:03.026Z,5.30
2018-11-07T05:30:03.006Z,5.10
2018-11-07T05:31:03.040Z,5.10
2018-11-07T05:32:03.080Z,4.70
2018-11-07T05:33:02.981Z,5.40
2018-11-07T05:34:02.980Z,4.90
2018-11-07T05:35:02.955Z,5.20
2018-11-07T05:36:02.974Z,4.80
2018-11-07T05:37:02.931Z,4.90
2018-11-07T05:38:02.957Z,5.00
2018-11-07T05:39:02.915Z,4.60
2018-11-07T05:40:02.904Z,5.00
2018-11-07T05:41:02.920Z,4.50
2018-11-07T05:42:02.894Z,4.50
2018-11-07T05:43:02.866Z,4.80
2018-11-07T05:44:02.857Z,4.70
2018-11-07T05:45:02.849Z,4.80
2018-11-07T05:46:02.854Z,4.50
2018-11-07T05:47:02.863Z,4.80
2018-11-07T05:48:02.816Z,3.90
2018-11-07T05:49:02.874Z,4.50
2018-11-07T05:50:02.790Z,4.40
2018-11-07T05:51:02.806Z,4.70
2018-11-07T05:52:02.765Z,4.00
2018-11-07T05:53:02.761Z,4.10
2018-11-07T05:54:02.748Z,4.00
2018-11-07T05:55:02.736Z,4.20
2018-11-07T05:56:02.722Z,4.30
2018-11-07T05:57:02.742Z,4.10
2018-11-07T05:58:02.704Z,4.00
2018-11-07T05:59:02.711Z,3.90
2018-11-07T06:00:02.686Z,3.90
2018-11-07T06:01:02.667Z,3.80
2018-11-07T06:02:02.659Z,4.00
2018-11-07T06:03:02.678Z,3.80
2018-11-07T06:04:02.637Z,4.00
2018-11-07T06:05:02.638Z,3.80
2018-11-07T06:06:02.620Z,3.70
2018-11-07T06:07:02.606Z,4.00
2018-11-07T06:08:02.598Z,3.40
2018-11-07T06:09:02.606Z,3.80
2018-11-07T06:10:02.574Z,3.60
2018-11-07T06:11:02.563Z,3.50
2018-11-07T06:12:02.565Z,3.30
2018-11-07T06:13:02.547Z,3.50
2018-11-07T06:14:02.527Z,3.70
2018-11-07T06:15:02.537Z,3.60
2018-11-07T06:16:02.524Z,3.80
2018-11-07T06:17:02.502Z,3.80
2018-11-07T06:18:02.514Z,3.50
2018-11-07T06:19:02.494Z,4.00
2018-11-07T06:20:02.555Z,3.90
2018-11-07T06:21:02.467Z,3.80
2018-11-07T06:22:02.472Z,3.90
2018-11-07T06:23:02.602Z,3.70
2018-11-07T06:24:02.504Z,3.80
2018-11-07T06:25:02.602Z,3.60
2018-11-07T06:26:02.418Z,3.70
2018-11-07T06:27:02.407Z,3.60
2018-11-07T06:28:02.374Z,3.90
2018-11-07T06:29:02.369Z,3.70
2018-11-07T06:30:02.360Z,3.90
2018-11-07T06:31:02.395Z,3.40
2018-11-07T06:32:02.347Z,3.90
2018-11-07T06:33:02.319Z,3.40
2018-11-07T06:34:02.328Z,3.70
2018-11-07T06:35:02.307Z,3.60
2018-11-07T06:36:02.288Z,3.70
2018-11-07T06:37:02.301Z,3.80
2018-11-07T06:38:02.296Z,3.50
2018-11-07T06:39:02.258Z,3.40
2018-11-07T06:40:02.250Z,3.80
2018-11-07T06:41:02.262Z,3.70
2018-11-07T06:42:02.249Z,3.30
2018-11-07T06:43:02.214Z,3.60
2018-11-07T06:44:02.227Z,3.50
2018-11-07T06:45:02.226Z,3.40
2018-11-07T06:46:02.197Z,3.60
2018-11-07T06:47:02.196Z,3.40
2018-11-07T06:48:02.157Z,3.70
2018-11-07T06:49:02.155Z,3.60
2018-11-07T06:50:02.160Z,3.60
2018-11-07T06:51:02.129Z,3.80
2018-11-07T06:52:02.137Z,3.70
2018-11-07T06:53:02.101Z,3.40
2018-11-07T06:54:02.109Z,3.60
2018-11-07T06:55:02.090Z,3.90
2018-11-07T06:56:02.290Z,3.60
2018-11-07T06:57:02.086Z,4.00
2018-11-07T06:58:02.056Z,3.40
2018-11-07T06:59:02.041Z,3.60
2018-11-07T07:00:02.042Z,3.60
2018-11-07T07:01:02.070Z,3.40
2018-11-07T07:02:02.045Z,3.60
2018-11-07T07:03:02.104Z,3.70
2018-11-07T07:04:01.998Z,3.50
2018-11-07T07:05:02.017Z,3.70
2018-11-07T07:06:02.002Z,3.40
2018-11-07T07:07:02.055Z,3.40
2018-11-07T07:08:01.956Z,3.70
2018-11-07T07:09:01.944Z,3.50
2018-11-07T07:10:01.924Z,3.40
2018-11-07T07:11:01.911Z,3.70
2018-11-07T07:12:01.924Z,3.30
2018-11-07T07:13:01.884Z,3.50
2018-11-07T07:14:01.890Z,3.70
2018-11-07T07:15:01.872Z,3.30
2018-11-07T07:16:01.857Z,3.60
2018-11-07T07:17:01.845Z,3.20
2018-11-07T07:18:01.956Z,3.40
2018-11-07T07:19:01.841Z,3.20
2018-11-07T07:20:01.848Z,3.40
2018-11-07T07:21:03.417Z,3.40
2018-11-07T07:22:01.792Z,3.40
2018-11-07T07:23:01.803Z,3.10
2018-11-07T07:24:01.795Z,3.40
2018-11-07T07:25:01.754Z,3.40
2018-11-07T07:26:01.762Z,3.50
2018-11-07T07:27:01.758Z,3.10
2018-11-07T07:28:01.725Z,3.50
2018-11-07T07:29:01.766Z,3.30
2018-11-07T07:30:01.753Z,3.40
2018-11-07T07:31:01.690Z,3.20
2018-11-07T07:32:01.737Z,3.30
2018-11-07T07:33:03.633Z,3.20
2018-11-07T07:34:01.683Z,3.10
2018-11-07T07:35:01.700Z,3.60
2018-11-07T07:36:01.648Z,3.30
2018-11-07T07:37:01.627Z,3.50
2018-11-07T07:38:01.637Z,3.30
2018-11-07T07:39:01.604Z,3.00
2018-11-07T07:40:01.615Z,3.10
2018-11-07T07:41:01.584Z,3.30
2018-11-07T07:42:01.583Z,3.20
2018-11-07T07:43:01.562Z,3.40
2018-11-07T07:44:01.554Z,3.10
2018-11-07T07:45:01.564Z,3.20
2018-11-07T07:46:01.552Z,3.20
2018-11-07T07:47:02.597Z,3.00
2018-11-07T07:48:01.533Z,3.00
2018-11-07T07:49:01.564Z,3.10
2018-11-07T07:50:01.625Z,3.00
2018-11-07T07:51:02.243Z,3.00
2018-11-07T07:52:01.692Z,3.20
2018-11-07T07:53:01.631Z,2.80
2018-11-07T07:54:01.495Z,3.10
2018-11-07T07:55:01.490Z,2.90
2018-11-07T07:56:01.780Z,2.90
2018-11-07T07:57:01.665Z,3.00
2018-11-07T07:58:01.421Z,2.60
2018-11-07T07:59:01.390Z,2.90
2018-11-07T08:00:01.388Z,2.90
2018-11-07T08:01:01.387Z,2.80
2018-11-07T08:02:01.398Z,2.80
2018-11-07T08:03:01.338Z,2.60
2018-11-07T08:04:01.340Z,2.60
2018-11-07T08:05:01.342Z,2.30
2018-11-07T08:06:01.310Z,2.80
2018-11-07T08:07:01.379Z,2.40
2018-11-07T08:08:01.300Z,2.30
2018-11-07T08:09:01.271Z,2.50
2018-11-07T08:10:01.264Z,2.60
2018-11-07T08:11:01.261Z,2.50
2018-11-07T08:12:01.239Z,2.30
2018-11-07T08:13:01.254Z,2.40
2018-11-07T08:14:01.369Z,2.40
2018-11-07T08:15:01.221Z,2.50
2018-11-07T08:16:01.201Z,2.50
2018-11-07T08:17:01.204Z,2.30
2018-11-07T08:18:01.175Z,2.50
2018-11-07T08:19:01.189Z,2.60
2018-11-07T08:20:01.218Z,2.40
2018-11-07T08:21:01.201Z,2.40
2018-11-07T08:22:01.132Z,2.50
2018-11-07T08:23:01.138Z,2.60
2018-11-07T08:24:01.109Z,2.50
2018-11-07T08:25:02.274Z,2.30
2018-11-07T08:26:01.113Z,2.20
2018-11-07T08:27:01.082Z,2.40
2018-11-07T08:28:01.092Z,2.30
2018-11-07T08:29:01.074Z,2.10
2018-11-07T08:30:01.166Z,2.40
2018-11-07T08:31:01.215Z,2.90
2018-11-07T08:32:01.048Z,3.20
2018-11-07T08:33:01.017Z,3.40
2018-11-07T08:34:01.003Z,2.40
2018-11-07T08:35:01.018Z,2.20
2018-11-07T08:36:01.113Z,2.30
2018-11-07T08:37:01.015Z,2.10
2018-11-07T08:38:01.019Z,2.10
2018-11-07T08:39:01.036Z,2.10
2018-11-07T08:40:00.960Z,2.30
2018-11-07T08:41:00.965Z,2.00
2018-11-07T08:42:00.970Z,2.10
2018-11-07T08:43:01.027Z,2.30
2018-11-07T08:44:00.888Z,1.90
2018-11-07T08:45:00.905Z,1.90
2018-11-07T08:46:00.871Z,1.90
2018-11-07T08:47:00.858Z,2.00
2018-11-07T08:48:00.893Z,1.80
2018-11-07T08:49:00.832Z,1.90
2018-11-07T08:50:00.896Z,1.70
2018-11-07T08:51:00.817Z,1.70
2018-11-07T08:52:00.810Z,1.90
2018-11-07T08:53:00.788Z,1.70
2018-11-07T08:54:00.779Z,2.20
2018-11-07T08:55:00.819Z,1.90
2018-11-07T08:56:00.784Z,1.80
2018-11-07T08:57:00.759Z,1.80
2018-11-07T08:58:00.741Z,1.50
2018-11-07T08:59:00.729Z,1.60
2018-11-07T09:00:00.728Z,1.60
2018-11-07T09:01:00.725Z,1.80
2018-11-07T09:02:00.730Z,1.40
2018-11-07T09:03:00.700Z,1.60
2018-11-07T09:04:00.674Z,1.60
2018-11-07T09:05:00.665Z,1.60
2018-11-07T09:06:00.652Z,1.50
2018-11-07T09:07:00.650Z,1.60
2018-11-07T09:08:00.643Z,1.60
2018-11-07T09:09:00.636Z,1.60
2018-11-07T09:10:00.612Z,1.60
2018-11-07T09:11:00.641Z,1.50
2018-11-07T09:12:00.673Z,1.70
2018-11-07T09:13:00.597Z,2.20
2018-11-07T09:14:00.565Z,2.80
2018-11-07T09:15:00.569Z,2.50
2018-11-07T09:16:00.538Z,1.70
2018-11-07T09:17:00.566Z,1.40
2018-11-07T09:18:00.538Z,1.60
2018-11-07T09:19:00.521Z,1.60
2018-11-07T09:20:00.547Z,1.50
2018-11-07T09:21:00.485Z,1.60
2018-11-07T09:22:00.478Z,1.40
2018-11-07T09:23:00.495Z,1.20
2018-11-07T09:24:00.469Z,1.60
2018-11-07T09:25:00.447Z,1.60
2018-11-07T09:26:00.449Z,1.30
2018-11-07T09:27:00.627Z,1.50
2018-11-07T09:28:00.441Z,1.60
2018-11-07T09:29:00.424Z,1.70
2018-11-07T09:30:00.448Z,1.40
2018-11-07T09:31:00.379Z,1.50
2018-11-07T09:32:00.396Z,1.60
2018-11-07T09:33:00.371Z,1.40
2018-11-07T09:34:00.345Z,1.60
2018-11-07T09:35:00.332Z,1.60
2018-11-07T09:36:00.319Z,1.40
2018-11-07T09:37:00.320Z,1.20
2018-11-07T09:38:00.318Z,1.40
2018-11-07T09:39:00.291Z,1.30
2018-11-07T09:40:00.275Z,1.50
2018-11-07T09:41:00.271Z,1.50
2018-11-07T09:42:00.274Z,1.30
2018-11-07T09:43:00.275Z,1.50
2018-11-07T09:44:00.242Z,1.30
2018-11-07T09:45:00.223Z,1.80
2018-11-07T09:46:00.237Z,1.40
2018-11-07T09:47:00.205Z,1.50
2018-11-07T09:48:00.225Z,1.50
2018-11-07T09:49:00.177Z,1.40
2018-11-07T09:50:00.173Z,1.40
2018-11-07T09:51:00.156Z,1.40
2018-11-07T09:52:00.169Z,1.60
2018-11-07T09:53:00.189Z,1.50
2018-11-07T09:54:00.217Z,1.70
2018-11-07T09:55:00.119Z,1.40
2018-11-07T09:56:00.109Z,1.60
2018-11-07T09:57:00.107Z,1.70
2018-11-07T09:58:00.103Z,1.50
2018-11-07T09:59:00.089Z,1.40
2018-11-07T10:00:00.080Z,1.40
2018-11-07T10:01:00.050Z,1.40
2018-11-07T10:02:00.038Z,1.40
2018-11-07T10:03:00.042Z,1.30
2018-11-07T10:04:00.016Z,1.50
2018-11-07T10:05:00.034Z,1.40
2018-11-07T10:05:59.996Z,1.40
2018-11-07T10:06:59.999Z,1.50
2018-11-07T10:08:00.012Z,1.50
2018-11-07T10:08:59.956Z,1.40
2018-11-07T10:10:00.027Z,1.40
2018-11-07T10:10:59.955Z,1.50
2018-11-07T10:11:59.933Z,1.40
2018-11-07T10:12:59.973Z,2.00
2018-11-07T10:13:59.927Z,2.70
2018-11-07T10:14:59.975Z,1.30
2018-11-07T10:15:59.930Z,1.60
2018-11-07T10:16:59.875Z,1.90
2018-11-07T10:17:59.884Z,1.80
2018-11-07T10:18:59.851Z,1.70
2018-11-07T10:19:59.846Z,1.70
2018-11-07T10:20:59.843Z,2.00
2018-11-07T10:21:59.816Z,2.30
2018-11-07T10:22:59.805Z,1.40
2018-11-07T10:23:59.792Z,1.70
2018-11-07T10:24:59.790Z,1.50
2018-11-07T10:25:59.799Z,1.30
2018-11-07T10:26:59.884Z,1.40
2018-11-07T10:28:01.557Z,1.50
2018-11-07T10:28:59.898Z,1.40
2018-11-07T10:30:00.546Z,1.50
2018-11-07T10:30:59.719Z,1.70
2018-11-07T10:32:00.172Z,1.50
2018-11-07T10:32:59.697Z,1.60
2018-11-07T10:33:59.699Z,1.60
2018-11-07T10:34:59.694Z,1.60
2018-11-07T10:35:59.659Z,1.60
2018-11-07T10:36:59.674Z,1.60
2018-11-07T10:37:59.767Z,1.60
2018-11-07T10:38:59.691Z,1.50
2018-11-07T10:39:59.696Z,2.00
2018-11-07T10:40:59.618Z,1.60
2018-11-07T10:41:59.596Z,1.80
2018-11-07T10:42:59.604Z,1.70
2018-11-07T10:43:59.668Z,1.50
2018-11-07T10:44:59.561Z,1.40
2018-11-07T10:45:59.611Z,1.30
2018-11-07T10:46:59.540Z,1.50
2018-11-07T10:47:59.553Z,1.40
2018-11-07T10:48:59.527Z,1.40
2018-11-07T10:49:59.510Z,1.40
2018-11-07T10:50:59.506Z,1.40
2018-11-07T10:51:59.559Z,1.60
2018-11-07T10:52:59.502Z,1.40
2018-11-07T10:53:59.464Z,1.70
2018-11-07T10:54:59.513Z,1.30
2018-11-07T10:55:59.441Z,1.50
2018-11-07T10:56:59.451Z,1.70
2018-11-07T10:57:59.424Z,1.30
2018-11-07T10:58:59.434Z,1.50
2018-11-07T10:59:59.398Z,1.50
2018-11-07T11:00:59.420Z,1.40
2018-11-07T11:01:59.394Z,1.50
2018-11-07T11:02:59.388Z,1.60
2018-11-07T11:03:59.421Z,1.30
2018-11-07T11:04:59.394Z,1.30
2018-11-07T11:05:59.333Z,1.70
2018-11-07T11:06:59.334Z,1.30
2018-11-07T11:07:59.310Z,1.50
2018-11-07T11:08:59.311Z,1.40
2018-11-07T11:09:59.310Z,1.50
2018-11-07T11:10:59.301Z,1.30
2018-11-07T11:11:59.273Z,1.30
2018-11-07T11:12:59.258Z,1.30
2018-11-07T11:13:59.247Z,1.20
2018-11-07T11:14:59.258Z,1.30
2018-11-07T11:15:59.264Z,1.50
2018-11-07T11:16:59.379Z,1.40
2018-11-07T11:17:59.205Z,1.30
2018-11-07T11:18:59.194Z,1.40
2018-11-07T11:19:59.183Z,1.50
2018-11-07T11:20:59.178Z,1.40
2018-11-07T11:21:59.170Z,1.20
2018-11-07T11:22:59.181Z,1.20
2018-11-07T11:23:59.145Z,1.30
2018-11-07T11:24:59.129Z,1.40
2018-11-07T11:25:59.221Z,1.20
2018-11-07T11:26:59.113Z,1.40
2018-11-07T11:27:59.103Z,1.10
2018-11-07T11:28:59.109Z,1.30
2018-11-07T11:29:59.089Z,1.40
2018-11-07T11:30:59.096Z,1.50
2018-11-07T11:31:59.054Z,1.20
2018-11-07T11:32:59.047Z,1.40
2018-11-07T11:33:59.149Z,1.30
2018-11-07T11:34:59.184Z,1.30
2018-11-07T11:35:59.018Z,1.30
2018-11-07T11:36:59.039Z,1.30
2018-11-07T11:37:58.988Z,1.30
2018-11-07T11:38:58.980Z,1.20
2018-11-07T11:39:58.967Z,1.40
2018-11-07T11:40:59.015Z,1.40
2018-11-07T11:41:58.963Z,1.50
2018-11-07T11:42:58.939Z,1.30
2018-11-07T11:43:58.932Z,1.40
2018-11-07T11:44:58.913Z,1.30
2018-11-07T11:45:58.933Z,1.20
2018-11-07T11:46:58.907Z,1.30
2018-11-07T11:47:58.919Z,1.10
2018-11-07T11:48:58.939Z,1.30
2018-11-07T11:49:58.859Z,1.50
2018-11-07T11:50:58.871Z,1.30
2018-11-07T11:51:58.839Z,1.30
2018-11-07T11:52:58.856Z,1.40
2018-11-07T11:53:58.822Z,1.50
2018-11-07T11:54:58.809Z,1.20
2018-11-07T11:55:58.803Z,1.40
2018-11-07T11:56:58.789Z,1.20
2018-11-07T11:57:58.784Z,1.00
2018-11-07T11:58:58.917Z,1.30
2018-11-07T11:59:59.045Z,1.40
2018-11-07T12:00:58.745Z,1.50
2018-11-07T12:01:58.781Z,1.30
2018-11-07T12:02:58.725Z,1.40
2018-11-07T12:03:58.716Z,1.50
2018-11-07T12:04:58.702Z,1.40
2018-11-07T12:05:58.712Z,1.30
2018-11-07T12:06:58.680Z,1.20
2018-11-07T12:07:58.689Z,1.20
2018-11-07T12:08:58.726Z,1.30
2018-11-07T12:09:58.645Z,1.40
2018-11-07T12:10:58.656Z,1.50
2018-11-07T12:11:58.647Z,1.40
2018-11-07T12:12:58.615Z,1.40
2018-11-07T12:13:58.601Z,1.10
2018-11-07T12:14:58.591Z,1.30
2018-11-07T12:15:58.599Z,1.20
2018-11-07T12:16:58.566Z,1.10
2018-11-07T12:17:58.564Z,1.10
2018-11-07T12:18:58.571Z,1.10
2018-11-07T12:19:58.585Z,1.20
2018-11-07T12:20:58.542Z,1.10
2018-11-07T12:21:58.519Z,1.50
2018-11-07T12:22:58.500Z,1.10
2018-11-07T12:23:58.497Z,1.10
2018-11-07T12:24:58.500Z,1.30
2018-11-07T12:25:58.487Z,1.20
2018-11-07T12:26:58.554Z,1.10
2018-11-07T12:27:58.450Z,1.20
2018-11-07T12:28:58.432Z,1.20
2018-11-07T12:29:58.454Z,1.20
2018-11-07T12:30:58.435Z,1.20
2018-11-07T12:31:58.399Z,1.20
2018-11-07T12:32:58.396Z,1.10
2018-11-07T12:33:58.390Z,1.20
2018-11-07T12:34:58.394Z,1.10
2018-11-07T12:35:58.402Z,1.20
2018-11-07T12:36:58.367Z,1.30
2018-11-07T12:37:58.340Z,1.10
2018-11-07T12:38:58.341Z,1.20
2018-11-07T12:39:58.331Z,1.20
2018-11-07T12:40:58.359Z,1.30
2018-11-07T12:41:58.290Z,1.20
2018-11-07T12:42:58.392Z,1.10
2018-11-07T12:43:58.268Z,1.20
2018-11-07T12:44:58.282Z,1.00
2018-11-07T12:45:58.248Z,1.10
2018-11-07T12:46:58.259Z,1.20
2018-11-07T12:47:58.229Z,1.20
2018-11-07T12:48:58.225Z,1.30
2018-11-07T12:49:58.335Z,1.10
2018-11-07T12:50:58.193Z,1.10
2018-11-07T12:51:58.202Z,1.20
2018-11-07T12:52:58.167Z,1.10
2018-11-07T12:53:58.157Z,1.00
2018-11-07T12:54:58.160Z,1.10
2018-11-07T12:55:58.132Z,1.20
2018-11-07T12:56:58.211Z,1.10
2018-11-07T12:57:58.292Z,1.10
2018-11-07T12:58:58.108Z,1.20
2018-11-07T12:59:58.112Z,1.10
2018-11-07T13:00:58.103Z,1.10
2018-11-07T13:01:58.072Z,1.10
2018-11-07T13:02:58.116Z,1.20
2018-11-07T13:03:58.165Z,1.30
2018-11-07T13:04:58.210Z,1.20
2018-11-07T13:06:01.178Z,1.30
2018-11-07T13:06:58.054Z,1.10
2018-11-07T13:07:58.151Z,1.20
2018-11-07T13:08:58.312Z,1.10
2018-11-07T13:10:04.671Z,1.10
2018-11-07T13:10:58.025Z,1.30
2018-11-07T13:11:58.004Z,1.00
2018-11-07T13:12:58.166Z,1.20
2018-11-07T13:13:58.785Z,1.10
2018-11-07T13:14:58.016Z,1.10
2018-11-07T13:15:57.942Z,1.40
2018-11-07T13:16:57.914Z,1.10
2018-11-07T13:17:58.015Z,1.20